sensor_id;sensor_type;location;lat;lon;timestamp;P1;durP1;ratioP1;P2;durP2;ratioP2
80251;SDS011;69562;37.974;23.708;2023-04-24T00:01:27;20.43;;;11.70;;
80251;SDS011;69562;37.974;23.708;2023-04-24T00:03:54;16.33;;;12.00;;
80251;SDS011;69562;37.974;23.708;2023-04-24T00:06:24;17.73;;;11.43;;
80251;SDS011;69562;37.974;23.708;2023-04-24T00:09:00;18.85;;;11.63;;
80251;SDS011;69562;37.974;23.708;2023-04-24T00:11:27;16.25;;;11.07;;
80251;SDS011;69562;37.974;23.708;2023-04-24T00:13:52;14.55;;;11.80;;
80251;SDS011;69562;37.974;23.708;2023-04-24T00:16:18;15.55;;;10.88;;
80251;SDS011;69562;37.974;23.708;2023-04-24T00:18:44;15.40;;;11.40;;
80251;SDS011;69562;37.974;23.708;2023-04-24T00:21:10;17.27;;;11.33;;
80251;SDS011;69562;37.974;23.708;2023-04-24T00:23:36;14.85;;;11.15;;
80251;SDS011;69562;37.974;23.708;2023-04-24T00:26:02;16.63;;;11.13;;
80251;SDS011;69562;37.974;23.708;2023-04-24T00:28:28;17.05;;;11.43;;
80251;SDS011;69562;37.974;23.708;2023-04-24T00:30:54;14.13;;;11.02;;
80251;SDS011;69562;37.974;23.708;2023-04-24T00:33:19;15.13;;;11.03;;
80251;SDS011;69562;37.974;23.708;2023-04-24T00:35:45;18.08;;;11.23;;
80251;SDS011;69562;37.974;23.708;2023-04-24T00:38:11;16.25;;;11.45;;
80251;SDS011;69562;37.974;23.708;2023-04-24T00:40:37;16.47;;;11.03;;
80251;SDS011;69562;37.974;23.708;2023-04-24T00:43:02;15.90;;;10.43;;
80251;SDS011;69562;37.974;23.708;2023-04-24T00:45:28;15.80;;;10.60;;
80251;SDS011;69562;37.974;23.708;2023-04-24T00:47:56;15.38;;;10.57;;
80251;SDS011;69562;37.974;23.708;2023-04-24T00:50:23;15.45;;;10.77;;
80251;SDS011;69562;37.974;23.708;2023-04-24T00:52:49;14.25;;;10.98;;
80251;SDS011;69562;37.974;23.708;2023-04-24T00:55:16;15.52;;;11.27;;
80251;SDS011;69562;37.974;23.708;2023-04-24T00:57:42;17.67;;;10.88;;
80251;SDS011;69562;37.974;23.708;2023-04-24T01:00:09;13.57;;;10.38;;
80251;SDS011;69562;37.974;23.708;2023-04-24T01:02:38;14.43;;;10.90;;
80251;SDS011;69562;37.974;23.708;2023-04-24T01:05:08;15.68;;;10.73;;
80251;SDS011;69562;37.974;23.708;2023-04-24T01:07:34;14.52;;;10.85;;
80251;SDS011;69562;37.974;23.708;2023-04-24T01:10:01;15.65;;;10.88;;
80251;SDS011;69562;37.974;23.708;2023-04-24T01:12:27;18.52;;;11.55;;
80251;SDS011;69562;37.974;23.708;2023-04-24T01:14:54;15.63;;;10.53;;
80251;SDS011;69562;37.974;23.708;2023-04-24T01:19:46;14.13;;;10.75;;
80251;SDS011;69562;37.974;23.708;2023-04-24T01:22:14;16.80;;;10.60;;
80251;SDS011;69562;37.974;23.708;2023-04-24T01:24:41;15.32;;;10.93;;
80251;SDS011;69562;37.974;23.708;2023-04-24T01:27:08;15.23;;;10.10;;
80251;SDS011;69562;37.974;23.708;2023-04-24T01:32:00;14.18;;;10.88;;
80251;SDS011;69562;37.974;23.708;2023-04-24T01:34:26;14.00;;;10.50;;
80251;SDS011;69562;37.974;23.708;2023-04-24T01:36:52;16.50;;;10.70;;
80251;SDS011;69562;37.974;23.708;2023-04-24T01:39:18;16.02;;;10.73;;
80251;SDS011;69562;37.974;23.708;2023-04-24T01:41:45;16.35;;;10.90;;
80251;SDS011;69562;37.974;23.708;2023-04-24T01:44:12;14.25;;;10.57;;
80251;SDS011;69562;37.974;23.708;2023-04-24T01:46:38;16.42;;;11.15;;
80251;SDS011;69562;37.974;23.708;2023-04-24T01:49:04;16.75;;;10.55;;
80251;SDS011;69562;37.974;23.708;2023-04-24T01:51:30;16.40;;;11.18;;
80251;SDS011;69562;37.974;23.708;2023-04-24T01:53:56;15.10;;;11.15;;
80251;SDS011;69562;37.974;23.708;2023-04-24T01:56:22;15.70;;;10.68;;
80251;SDS011;69562;37.974;23.708;2023-04-24T01:58:48;16.98;;;11.27;;
80251;SDS011;69562;37.974;23.708;2023-04-24T02:01:20;18.65;;;11.65;;
80251;SDS011;69562;37.974;23.708;2023-04-24T02:03:46;13.95;;;10.73;;
80251;SDS011;69562;37.974;23.708;2023-04-24T02:06:12;15.13;;;11.00;;
80251;SDS011;69562;37.974;23.708;2023-04-24T02:08:37;13.77;;;10.83;;
80251;SDS011;69562;37.974;23.708;2023-04-24T02:11:03;16.57;;;11.73;;
80251;SDS011;69562;37.974;23.708;2023-04-24T02:13:29;16.40;;;11.48;;
80251;SDS011;69562;37.974;23.708;2023-04-24T02:15:54;16.87;;;11.07;;
80251;SDS011;69562;37.974;23.708;2023-04-24T02:18:20;15.40;;;11.03;;
80251;SDS011;69562;37.974;23.708;2023-04-24T02:20:47;14.43;;;11.60;;
80251;SDS011;69562;37.974;23.708;2023-04-24T02:23:13;13.93;;;10.63;;
80251;SDS011;69562;37.974;23.708;2023-04-24T02:25:39;16.73;;;11.57;;
80251;SDS011;69562;37.974;23.708;2023-04-24T02:28:05;16.30;;;11.43;;
80251;SDS011;69562;37.974;23.708;2023-04-24T02:30:31;14.70;;;11.38;;
80251;SDS011;69562;37.974;23.708;2023-04-24T02:32:57;16.23;;;10.90;;
80251;SDS011;69562;37.974;23.708;2023-04-24T02:35:22;18.37;;;11.83;;
80251;SDS011;69562;37.974;23.708;2023-04-24T02:37:48;15.90;;;11.43;;
80251;SDS011;69562;37.974;23.708;2023-04-24T02:40:14;15.60;;;11.10;;
80251;SDS011;69562;37.974;23.708;2023-04-24T02:42:40;16.70;;;11.10;;
80251;SDS011;69562;37.974;23.708;2023-04-24T02:45:05;16.77;;;11.00;;
80251;SDS011;69562;37.974;23.708;2023-04-24T02:47:32;14.38;;;10.57;;
80251;SDS011;69562;37.974;23.708;2023-04-24T02:49:57;13.67;;;10.63;;
80251;SDS011;69562;37.974;23.708;2023-04-24T02:52:23;15.77;;;10.50;;
80251;SDS011;69562;37.974;23.708;2023-04-24T02:54:49;19.83;;;10.47;;
80251;SDS011;69562;37.974;23.708;2023-04-24T02:57:14;14.43;;;10.50;;
80251;SDS011;69562;37.974;23.708;2023-04-24T02:59:40;13.55;;;10.68;;
80251;SDS011;69562;37.974;23.708;2023-04-24T03:02:06;17.33;;;11.20;;
80251;SDS011;69562;37.974;23.708;2023-04-24T03:04:32;16.20;;;10.55;;
80251;SDS011;69562;37.974;23.708;2023-04-24T03:06:58;14.53;;;11.00;;
80251;SDS011;69562;37.974;23.708;2023-04-24T03:09:23;19.30;;;10.90;;
80251;SDS011;69562;37.974;23.708;2023-04-24T03:11:50;14.25;;;10.15;;
80251;SDS011;69562;37.974;23.708;2023-04-24T03:14:16;18.43;;;11.20;;
80251;SDS011;69562;37.974;23.708;2023-04-24T03:16:41;14.82;;;10.82;;
80251;SDS011;69562;37.974;23.708;2023-04-24T03:19:07;16.33;;;11.57;;
80251;SDS011;69562;37.974;23.708;2023-04-24T03:21:33;15.27;;;10.90;;
80251;SDS011;69562;37.974;23.708;2023-04-24T03:24:00;17.45;;;10.98;;
80251;SDS011;69562;37.974;23.708;2023-04-24T03:28:52;14.00;;;10.43;;
80251;SDS011;69562;37.974;23.708;2023-04-24T03:31:18;17.07;;;11.00;;
80251;SDS011;69562;37.974;23.708;2023-04-24T03:33:46;18.75;;;11.25;;
80251;SDS011;69562;37.974;23.708;2023-04-24T03:36:11;18.07;;;10.77;;
80251;SDS011;69562;37.974;23.708;2023-04-24T03:38:37;17.20;;;10.43;;
80251;SDS011;69562;37.974;23.708;2023-04-24T03:41:03;18.17;;;10.23;;
80251;SDS011;69562;37.974;23.708;2023-04-24T03:43:28;16.47;;;10.47;;
80251;SDS011;69562;37.974;23.708;2023-04-24T03:45:54;15.03;;;9.97;;
80251;SDS011;69562;37.974;23.708;2023-04-24T03:48:20;23.08;;;10.82;;
80251;SDS011;69562;37.974;23.708;2023-04-24T03:50:46;18.47;;;10.20;;
80251;SDS011;69562;37.974;23.708;2023-04-24T03:53:11;15.53;;;9.87;;
80251;SDS011;69562;37.974;23.708;2023-04-24T03:55:37;17.17;;;9.87;;
80251;SDS011;69562;37.974;23.708;2023-04-24T03:58:03;18.75;;;10.70;;
80251;SDS011;69562;37.974;23.708;2023-04-24T04:00:29;16.50;;;11.10;;
80251;SDS011;69562;37.974;23.708;2023-04-24T04:02:58;17.83;;;10.02;;
80251;SDS011;69562;37.974;23.708;2023-04-24T04:05:24;15.43;;;10.27;;
80251;SDS011;69562;37.974;23.708;2023-04-24T04:07:50;15.50;;;9.77;;
80251;SDS011;69562;37.974;23.708;2023-04-24T04:10:15;15.90;;;10.23;;
80251;SDS011;69562;37.974;23.708;2023-04-24T04:15:08;19.67;;;9.68;;
80251;SDS011;69562;37.974;23.708;2023-04-24T04:17:33;16.58;;;10.30;;
80251;SDS011;69562;37.974;23.708;2023-04-24T04:19:59;16.63;;;10.63;;
80251;SDS011;69562;37.974;23.708;2023-04-24T04:22:26;16.13;;;10.32;;
80251;SDS011;69562;37.974;23.708;2023-04-24T04:24:51;15.10;;;10.13;;
80251;SDS011;69562;37.974;23.708;2023-04-24T04:27:17;14.05;;;10.35;;
80251;SDS011;69562;37.974;23.708;2023-04-24T04:29:44;16.60;;;10.23;;
80251;SDS011;69562;37.974;23.708;2023-04-24T04:32:10;17.23;;;9.93;;
80251;SDS011;69562;37.974;23.708;2023-04-24T04:34:35;19.77;;;10.17;;
80251;SDS011;69562;37.974;23.708;2023-04-24T04:37:02;14.63;;;9.70;;
80251;SDS011;69562;37.974;23.708;2023-04-24T04:39:28;16.13;;;10.93;;
80251;SDS011;69562;37.974;23.708;2023-04-24T04:41:54;13.65;;;9.90;;
80251;SDS011;69562;37.974;23.708;2023-04-24T04:44:20;18.60;;;10.07;;
80251;SDS011;69562;37.974;23.708;2023-04-24T04:46:46;17.50;;;10.10;;
80251;SDS011;69562;37.974;23.708;2023-04-24T04:49:12;15.65;;;10.35;;
80251;SDS011;69562;37.974;23.708;2023-04-24T04:51:38;13.93;;;9.70;;
80251;SDS011;69562;37.974;23.708;2023-04-24T04:54:03;14.73;;;10.20;;
80251;SDS011;69562;37.974;23.708;2023-04-24T04:56:29;17.80;;;9.95;;
80251;SDS011;69562;37.974;23.708;2023-04-24T04:58:55;22.67;;;10.52;;
80251;SDS011;69562;37.974;23.708;2023-04-24T05:01:21;15.47;;;10.73;;
80251;SDS011;69562;37.974;23.708;2023-04-24T05:03:48;19.35;;;10.70;;
80251;SDS011;69562;37.974;23.708;2023-04-24T05:06:13;15.18;;;10.00;;
80251;SDS011;69562;37.974;23.708;2023-04-24T05:08:40;18.00;;;10.70;;
80251;SDS011;69562;37.974;23.708;2023-04-24T05:11:05;17.48;;;10.25;;
80251;SDS011;69562;37.974;23.708;2023-04-24T05:13:31;16.42;;;10.88;;
80251;SDS011;69562;37.974;23.708;2023-04-24T05:15:57;16.07;;;10.33;;
80251;SDS011;69562;37.974;23.708;2023-04-24T05:18:23;16.10;;;10.10;;
80251;SDS011;69562;37.974;23.708;2023-04-24T05:20:49;15.25;;;10.05;;
80251;SDS011;69562;37.974;23.708;2023-04-24T05:23:15;17.00;;;10.20;;
80251;SDS011;69562;37.974;23.708;2023-04-24T05:25:40;13.00;;;9.30;;
80251;SDS011;69562;37.974;23.708;2023-04-24T05:28:06;14.68;;;9.88;;
80251;SDS011;69562;37.974;23.708;2023-04-24T05:30:32;13.48;;;8.52;;
80251;SDS011;69562;37.974;23.708;2023-04-24T05:32:58;11.97;;;8.63;;
80251;SDS011;69562;37.974;23.708;2023-04-24T05:35:23;11.33;;;8.20;;
80251;SDS011;69562;37.974;23.708;2023-04-24T05:37:50;12.77;;;8.70;;
80251;SDS011;69562;37.974;23.708;2023-04-24T05:40:15;11.55;;;7.93;;
80251;SDS011;69562;37.974;23.708;2023-04-24T05:42:41;10.52;;;7.68;;
80251;SDS011;69562;37.974;23.708;2023-04-24T05:45:07;10.87;;;7.60;;
80251;SDS011;69562;37.974;23.708;2023-04-24T05:47:34;13.80;;;7.65;;
80251;SDS011;69562;37.974;23.708;2023-04-24T05:50:00;11.35;;;7.25;;
80251;SDS011;69562;37.974;23.708;2023-04-24T05:52:25;12.50;;;7.60;;
80251;SDS011;69562;37.974;23.708;2023-04-24T05:54:51;10.40;;;7.20;;
80251;SDS011;69562;37.974;23.708;2023-04-24T05:57:17;12.47;;;7.23;;
80251;SDS011;69562;37.974;23.708;2023-04-24T05:59:42;9.57;;;6.50;;
80251;SDS011;69562;37.974;23.708;2023-04-24T06:02:08;9.33;;;6.57;;
80251;SDS011;69562;37.974;23.708;2023-04-24T06:04:34;10.27;;;6.03;;
80251;SDS011;69562;37.974;23.708;2023-04-24T06:07:00;11.00;;;6.68;;
80251;SDS011;69562;37.974;23.708;2023-04-24T06:09:26;9.07;;;6.22;;
80251;SDS011;69562;37.974;23.708;2023-04-24T06:11:52;10.27;;;6.73;;
80251;SDS011;69562;37.974;23.708;2023-04-24T06:14:18;9.95;;;5.65;;
80251;SDS011;69562;37.974;23.708;2023-04-24T06:16:45;8.00;;;5.38;;
80251;SDS011;69562;37.974;23.708;2023-04-24T06:19:10;9.90;;;5.60;;
80251;SDS011;69562;37.974;23.708;2023-04-24T06:21:36;8.88;;;5.60;;
80251;SDS011;69562;37.974;23.708;2023-04-24T06:24:02;9.73;;;5.23;;
80251;SDS011;69562;37.974;23.708;2023-04-24T06:26:29;8.18;;;5.03;;
80251;SDS011;69562;37.974;23.708;2023-04-24T06:28:55;6.88;;;4.90;;
80251;SDS011;69562;37.974;23.708;2023-04-24T06:31:21;5.53;;;4.63;;
80251;SDS011;69562;37.974;23.708;2023-04-24T06:33:48;7.95;;;5.10;;
80251;SDS011;69562;37.974;23.708;2023-04-24T06:36:13;7.63;;;4.90;;
80251;SDS011;69562;37.974;23.708;2023-04-24T06:38:39;5.23;;;4.40;;
80251;SDS011;69562;37.974;23.708;2023-04-24T06:41:05;5.88;;;4.35;;
80251;SDS011;69562;37.974;23.708;2023-04-24T06:43:31;7.95;;;5.05;;
80251;SDS011;69562;37.974;23.708;2023-04-24T06:45:57;8.60;;;5.53;;
80251;SDS011;69562;37.974;23.708;2023-04-24T06:48:24;7.85;;;4.72;;
80251;SDS011;69562;37.974;23.708;2023-04-24T06:53:15;7.68;;;4.05;;
80251;SDS011;69562;37.974;23.708;2023-04-24T06:55:41;5.10;;;4.23;;
80251;SDS011;69562;37.974;23.708;2023-04-24T06:58:08;5.07;;;3.78;;
80251;SDS011;69562;37.974;23.708;2023-04-24T07:00:34;4.80;;;3.80;;
80251;SDS011;69562;37.974;23.708;2023-04-24T07:03:00;7.57;;;4.20;;
80251;SDS011;69562;37.974;23.708;2023-04-24T07:05:25;6.28;;;4.20;;
80251;SDS011;69562;37.974;23.708;2023-04-24T07:07:51;6.43;;;3.90;;
80251;SDS011;69562;37.974;23.708;2023-04-24T07:10:18;4.88;;;3.40;;
80251;SDS011;69562;37.974;23.708;2023-04-24T07:12:45;5.32;;;3.65;;
80251;SDS011;69562;37.974;23.708;2023-04-24T07:15:11;5.22;;;3.92;;
80251;SDS011;69562;37.974;23.708;2023-04-24T07:17:37;4.80;;;3.67;;
80251;SDS011;69562;37.974;23.708;2023-04-24T07:20:08;6.78;;;3.92;;
80251;SDS011;69562;37.974;23.708;2023-04-24T07:22:35;4.60;;;3.60;;
80251;SDS011;69562;37.974;23.708;2023-04-24T07:25:02;6.65;;;3.97;;
80251;SDS011;69562;37.974;23.708;2023-04-24T07:27:28;5.88;;;3.97;;
80251;SDS011;69562;37.974;23.708;2023-04-24T07:32:20;5.47;;;3.60;;
80251;SDS011;69562;37.974;23.708;2023-04-24T07:34:46;5.90;;;3.87;;
80251;SDS011;69562;37.974;23.708;2023-04-24T07:37:11;7.53;;;3.77;;
80251;SDS011;69562;37.974;23.708;2023-04-24T07:39:37;5.38;;;3.47;;
80251;SDS011;69562;37.974;23.708;2023-04-24T07:42:03;4.40;;;3.40;;
80251;SDS011;69562;37.974;23.708;2023-04-24T07:44:30;4.72;;;3.38;;
80251;SDS011;69562;37.974;23.708;2023-04-24T07:46:57;4.88;;;3.20;;
80251;SDS011;69562;37.974;23.708;2023-04-24T07:49:23;4.45;;;3.20;;
80251;SDS011;69562;37.974;23.708;2023-04-24T07:51:49;4.00;;;3.10;;
80251;SDS011;69562;37.974;23.708;2023-04-24T07:59:08;4.90;;;2.95;;
80251;SDS011;69562;37.974;23.708;2023-04-24T08:01:35;3.20;;;2.90;;
80251;SDS011;69562;37.974;23.708;2023-04-24T08:04:04;5.03;;;3.00;;
80251;SDS011;69562;37.974;23.708;2023-04-24T08:06:31;4.18;;;3.10;;
80251;SDS011;69562;37.974;23.708;2023-04-24T08:08:57;4.43;;;2.85;;
80251;SDS011;69562;37.974;23.708;2023-04-24T08:11:24;3.25;;;2.95;;
80251;SDS011;69562;37.974;23.708;2023-04-24T08:13:50;5.18;;;3.28;;
80251;SDS011;69562;37.974;23.708;2023-04-24T08:16:16;4.22;;;3.28;;
80251;SDS011;69562;37.974;23.708;2023-04-24T08:18:41;3.57;;;3.10;;
80251;SDS011;69562;37.974;23.708;2023-04-24T08:21:07;3.40;;;2.97;;
80251;SDS011;69562;37.974;23.708;2023-04-24T08:23:45;4.32;;;3.20;;
80251;SDS011;69562;37.974;23.708;2023-04-24T08:26:15;5.28;;;3.72;;
80251;SDS011;69562;37.974;23.708;2023-04-24T08:33:32;5.20;;;3.33;;
80251;SDS011;69562;37.974;23.708;2023-04-24T08:36:05;4.22;;;3.30;;
80251;SDS011;69562;37.974;23.708;2023-04-24T08:38:33;7.00;;;3.30;;
80251;SDS011;69562;37.974;23.708;2023-04-24T08:41:01;4.03;;;3.10;;
80251;SDS011;69562;37.974;23.708;2023-04-24T08:43:29;4.47;;;3.10;;
80251;SDS011;69562;37.974;23.708;2023-04-24T08:45:57;5.70;;;3.10;;
80251;SDS011;69562;37.974;23.708;2023-04-24T08:48:24;3.53;;;2.90;;
80251;SDS011;69562;37.974;23.708;2023-04-24T08:50:51;4.43;;;3.08;;
80251;SDS011;69562;37.974;23.708;2023-04-24T08:53:17;6.18;;;3.45;;
80251;SDS011;69562;37.974;23.708;2023-04-24T08:55:46;6.75;;;3.17;;
80251;SDS011;69562;37.974;23.708;2023-04-24T08:58:14;7.93;;;3.40;;
80251;SDS011;69562;37.974;23.708;2023-04-24T09:00:43;5.40;;;3.55;;
80251;SDS011;69562;37.974;23.708;2023-04-24T09:03:13;3.50;;;3.20;;
80251;SDS011;69562;37.974;23.708;2023-04-24T09:05:45;5.00;;;3.15;;
80251;SDS011;69562;37.974;23.708;2023-04-24T09:08:18;5.05;;;3.17;;
80251;SDS011;69562;37.974;23.708;2023-04-24T09:10:46;4.82;;;3.40;;
80251;SDS011;69562;37.974;23.708;2023-04-24T09:13:11;8.07;;;3.38;;
80251;SDS011;69562;37.974;23.708;2023-04-24T09:15:38;5.03;;;3.22;;
80251;SDS011;69562;37.974;23.708;2023-04-24T09:18:05;5.07;;;2.80;;
80251;SDS011;69562;37.974;23.708;2023-04-24T09:20:31;5.55;;;3.40;;
80251;SDS011;69562;37.974;23.708;2023-04-24T09:25:25;4.72;;;3.47;;
80251;SDS011;69562;37.974;23.708;2023-04-24T09:27:59;4.22;;;3.35;;
80251;SDS011;69562;37.974;23.708;2023-04-24T09:30:29;3.55;;;3.15;;
80251;SDS011;69562;37.974;23.708;2023-04-24T09:33:14;4.63;;;3.13;;
80251;SDS011;69562;37.974;23.708;2023-04-24T09:35:51;6.05;;;3.20;;
80251;SDS011;69562;37.974;23.708;2023-04-24T09:38:17;4.38;;;3.10;;
80251;SDS011;69562;37.974;23.708;2023-04-24T09:40:43;4.22;;;2.80;;
80251;SDS011;69562;37.974;23.708;2023-04-24T09:45:51;6.88;;;3.08;;
80251;SDS011;69562;37.974;23.708;2023-04-24T09:48:29;6.13;;;3.38;;
80251;SDS011;69562;37.974;23.708;2023-04-24T09:51:02;4.90;;;3.00;;
80251;SDS011;69562;37.974;23.708;2023-04-24T09:53:31;3.80;;;3.20;;
80251;SDS011;69562;37.974;23.708;2023-04-24T09:56:10;3.25;;;2.95;;
80251;SDS011;69562;37.974;23.708;2023-04-24T09:58:37;3.80;;;3.10;;
80251;SDS011;69562;37.974;23.708;2023-04-24T10:01:04;3.97;;;3.08;;
80251;SDS011;69562;37.974;23.708;2023-04-24T10:03:30;4.55;;;3.08;;
80251;SDS011;69562;37.974;23.708;2023-04-24T10:06:00;6.88;;;3.33;;
80251;SDS011;69562;37.974;23.708;2023-04-24T10:08:42;3.28;;;2.80;;
80251;SDS011;69562;37.974;23.708;2023-04-24T10:11:08;4.20;;;3.20;;
80251;SDS011;69562;37.974;23.708;2023-04-24T10:13:36;3.35;;;3.05;;
80251;SDS011;69562;37.974;23.708;2023-04-24T10:16:02;3.30;;;3.00;;
80251;SDS011;69562;37.974;23.708;2023-04-24T10:18:42;3.20;;;2.90;;
80251;SDS011;69562;37.974;23.708;2023-04-24T10:21:12;3.45;;;2.90;;
80251;SDS011;69562;37.974;23.708;2023-04-24T10:23:38;4.88;;;3.08;;
80251;SDS011;69562;37.974;23.708;2023-04-24T10:26:09;4.18;;;2.90;;
80251;SDS011;69562;37.974;23.708;2023-04-24T10:28:36;3.95;;;3.20;;
80251;SDS011;69562;37.974;23.708;2023-04-24T10:31:03;3.75;;;3.30;;
80251;SDS011;69562;37.974;23.708;2023-04-24T10:33:29;5.32;;;3.20;;
80251;SDS011;69562;37.974;23.708;2023-04-24T10:35:56;3.28;;;2.97;;
80251;SDS011;69562;37.974;23.708;2023-04-24T10:38:24;4.22;;;3.10;;
80251;SDS011;69562;37.974;23.708;2023-04-24T10:40:56;3.30;;;3.00;;
80251;SDS011;69562;37.974;23.708;2023-04-24T10:43:33;6.47;;;3.30;;
80251;SDS011;69562;37.974;23.708;2023-04-24T10:46:03;4.25;;;3.40;;
80251;SDS011;69562;37.974;23.708;2023-04-24T10:48:31;3.97;;;3.20;;
80251;SDS011;69562;37.974;23.708;2023-04-24T10:50:57;4.03;;;3.33;;
80251;SDS011;69562;37.974;23.708;2023-04-24T10:53:24;4.40;;;3.28;;
80251;SDS011;69562;37.974;23.708;2023-04-24T10:58:24;4.75;;;3.35;;
80251;SDS011;69562;37.974;23.708;2023-04-24T11:01:09;5.45;;;3.40;;
80251;SDS011;69562;37.974;23.708;2023-04-24T11:03:55;3.55;;;3.10;;
80251;SDS011;69562;37.974;23.708;2023-04-24T11:06:33;3.83;;;3.20;;
80251;SDS011;69562;37.974;23.708;2023-04-24T11:09:09;4.05;;;3.33;;
80251;SDS011;69562;37.974;23.708;2023-04-24T11:11:42;3.97;;;3.38;;
80251;SDS011;69562;37.974;23.708;2023-04-24T11:14:10;3.97;;;3.45;;
80251;SDS011;69562;37.974;23.708;2023-04-24T11:16:44;3.97;;;3.25;;
80251;SDS011;69562;37.974;23.708;2023-04-24T11:29:48;4.18;;;3.00;;
80251;SDS011;69562;37.974;23.708;2023-04-24T11:37:33;5.20;;;3.20;;
80251;SDS011;69562;37.974;23.708;2023-04-24T11:40:04;5.70;;;3.40;;
80251;SDS011;69562;37.974;23.708;2023-04-24T11:42:35;7.55;;;3.30;;
80251;SDS011;69562;37.974;23.708;2023-04-24T11:45:01;3.65;;;3.22;;
80251;SDS011;69562;37.974;23.708;2023-04-24T11:47:34;4.32;;;3.10;;
80251;SDS011;69562;37.974;23.708;2023-04-24T11:50:00;4.32;;;3.20;;
80251;SDS011;69562;37.974;23.708;2023-04-24T11:52:27;5.85;;;3.70;;
80251;SDS011;69562;37.974;23.708;2023-04-24T11:54:54;4.22;;;3.70;;
80251;SDS011;69562;37.974;23.708;2023-04-24T11:57:20;6.18;;;3.85;;
80251;SDS011;69562;37.974;23.708;2023-04-24T11:59:47;4.05;;;3.60;;
80251;SDS011;69562;37.974;23.708;2023-04-24T12:02:20;6.25;;;3.20;;
80251;SDS011;69562;37.974;23.708;2023-04-24T12:04:50;6.68;;;3.70;;
80251;SDS011;69562;37.974;23.708;2023-04-24T12:07:17;5.68;;;3.63;;
80251;SDS011;69562;37.974;23.708;2023-04-24T12:10:04;4.45;;;3.20;;
80251;SDS011;69562;37.974;23.708;2023-04-24T12:12:30;5.53;;;3.40;;
80251;SDS011;69562;37.974;23.708;2023-04-24T12:14:56;3.78;;;3.40;;
80251;SDS011;69562;37.974;23.708;2023-04-24T12:17:32;3.55;;;3.25;;
80251;SDS011;69562;37.974;23.708;2023-04-24T12:25:14;3.15;;;2.90;;
80251;SDS011;69562;37.974;23.708;2023-04-24T12:27:41;3.97;;;2.92;;
80251;SDS011;69562;37.974;23.708;2023-04-24T12:30:10;3.42;;;3.13;;
80251;SDS011;69562;37.974;23.708;2023-04-24T12:32:41;3.78;;;3.10;;
80251;SDS011;69562;37.974;23.708;2023-04-24T12:35:11;3.53;;;3.22;;
80251;SDS011;69562;37.974;23.708;2023-04-24T12:37:37;4.03;;;2.75;;
80251;SDS011;69562;37.974;23.708;2023-04-24T12:40:08;2.95;;;2.67;;
80251;SDS011;69562;37.974;23.708;2023-04-24T12:42:36;4.18;;;2.90;;
80251;SDS011;69562;37.974;23.708;2023-04-24T12:45:10;3.00;;;2.80;;
80251;SDS011;69562;37.974;23.708;2023-04-24T12:47:38;3.42;;;2.80;;
80251;SDS011;69562;37.974;23.708;2023-04-24T12:50:05;3.38;;;2.90;;
80251;SDS011;69562;37.974;23.708;2023-04-24T12:52:35;3.83;;;2.75;;
80251;SDS011;69562;37.974;23.708;2023-04-24T12:55:01;3.65;;;3.13;;
80251;SDS011;69562;37.974;23.708;2023-04-24T12:57:28;3.20;;;2.90;;
80251;SDS011;69562;37.974;23.708;2023-04-24T12:59:56;3.50;;;3.20;;
80251;SDS011;69562;37.974;23.708;2023-04-24T13:02:27;4.25;;;3.05;;
80251;SDS011;69562;37.974;23.708;2023-04-24T13:04:56;3.70;;;2.92;;
80251;SDS011;69562;37.974;23.708;2023-04-24T13:07:22;5.53;;;2.90;;
80251;SDS011;69562;37.974;23.708;2023-04-24T13:12:15;5.05;;;3.15;;
80251;SDS011;69562;37.974;23.708;2023-04-24T13:14:41;3.75;;;2.97;;
80251;SDS011;69562;37.974;23.708;2023-04-24T13:17:07;4.30;;;2.93;;
80251;SDS011;69562;37.974;23.708;2023-04-24T13:19:37;4.60;;;2.97;;
80251;SDS011;69562;37.974;23.708;2023-04-24T13:22:04;3.72;;;2.80;;
80251;SDS011;69562;37.974;23.708;2023-04-24T13:24:31;3.50;;;2.85;;
80251;SDS011;69562;37.974;23.708;2023-04-24T13:26:57;2.92;;;2.63;;
80251;SDS011;69562;37.974;23.708;2023-04-24T13:29:25;3.72;;;2.88;;
80251;SDS011;69562;37.974;23.708;2023-04-24T13:31:51;6.15;;;2.85;;
80251;SDS011;69562;37.974;23.708;2023-04-24T13:34:19;3.85;;;2.80;;
80251;SDS011;69562;37.974;23.708;2023-04-24T13:36:46;4.88;;;3.00;;
80251;SDS011;69562;37.974;23.708;2023-04-24T13:39:12;4.40;;;3.08;;
80251;SDS011;69562;37.974;23.708;2023-04-24T13:41:38;3.63;;;2.72;;
80251;SDS011;69562;37.974;23.708;2023-04-24T13:51:22;2.88;;;2.60;;
80251;SDS011;69562;37.974;23.708;2023-04-24T13:53:49;2.75;;;2.50;;
80251;SDS011;69562;37.974;23.708;2023-04-24T13:56:14;2.78;;;2.58;;
80251;SDS011;69562;37.974;23.708;2023-04-24T13:58:40;2.75;;;2.40;;
80251;SDS011;69562;37.974;23.708;2023-04-24T14:01:06;4.50;;;2.67;;
80251;SDS011;69562;37.974;23.708;2023-04-24T14:03:33;3.47;;;2.77;;
80251;SDS011;69562;37.974;23.708;2023-04-24T14:05:58;3.22;;;2.70;;
80251;SDS011;69562;37.974;23.708;2023-04-24T14:08:24;2.78;;;2.58;;
80251;SDS011;69562;37.974;23.708;2023-04-24T14:10:50;3.50;;;2.58;;
80251;SDS011;69562;37.974;23.708;2023-04-24T14:13:16;3.03;;;2.60;;
80251;SDS011;69562;37.974;23.708;2023-04-24T14:15:42;3.35;;;2.70;;
80251;SDS011;69562;37.974;23.708;2023-04-24T14:18:08;3.10;;;2.75;;
80251;SDS011;69562;37.974;23.708;2023-04-24T14:20:34;2.90;;;2.50;;
80251;SDS011;69562;37.974;23.708;2023-04-24T14:23:00;4.85;;;2.58;;
80251;SDS011;69562;37.974;23.708;2023-04-24T14:25:26;4.30;;;2.92;;
80251;SDS011;69562;37.974;23.708;2023-04-24T14:27:52;3.50;;;2.60;;
80251;SDS011;69562;37.974;23.708;2023-04-24T14:30:18;4.50;;;2.53;;
80251;SDS011;69562;37.974;23.708;2023-04-24T14:32:44;3.45;;;2.45;;
80251;SDS011;69562;37.974;23.708;2023-04-24T14:35:10;3.15;;;2.60;;
80251;SDS011;69562;37.974;23.708;2023-04-24T14:37:36;4.50;;;2.43;;
80251;SDS011;69562;37.974;23.708;2023-04-24T14:40:02;3.22;;;2.30;;
80251;SDS011;69562;37.974;23.708;2023-04-24T14:42:30;2.63;;;2.42;;
80251;SDS011;69562;37.974;23.708;2023-04-24T14:44:56;2.50;;;2.30;;
80251;SDS011;69562;37.974;23.708;2023-04-24T14:47:21;3.30;;;2.70;;
80251;SDS011;69562;37.974;23.708;2023-04-24T14:49:50;3.73;;;2.60;;
80251;SDS011;69562;37.974;23.708;2023-04-24T14:52:16;3.35;;;2.58;;
80251;SDS011;69562;37.974;23.708;2023-04-24T14:54:42;3.15;;;2.55;;
80251;SDS011;69562;37.974;23.708;2023-04-24T14:57:08;2.72;;;2.50;;
80251;SDS011;69562;37.974;23.708;2023-04-24T14:59:34;2.63;;;2.40;;
80251;SDS011;69562;37.974;23.708;2023-04-24T15:02:00;2.87;;;2.60;;
80251;SDS011;69562;37.974;23.708;2023-04-24T15:04:27;3.92;;;2.60;;
80251;SDS011;69562;37.974;23.708;2023-04-24T15:06:56;3.65;;;2.50;;
80251;SDS011;69562;37.974;23.708;2023-04-24T15:09:22;3.75;;;2.65;;
80251;SDS011;69562;37.974;23.708;2023-04-24T15:11:49;3.50;;;2.72;;
80251;SDS011;69562;37.974;23.708;2023-04-24T15:14:15;2.53;;;2.33;;
80251;SDS011;69562;37.974;23.708;2023-04-24T15:21:33;4.93;;;2.72;;
80251;SDS011;69562;37.974;23.708;2023-04-24T15:23:58;5.93;;;3.10;;
80251;SDS011;69562;37.974;23.708;2023-04-24T15:26:24;3.83;;;3.10;;
80251;SDS011;69562;37.974;23.708;2023-04-24T15:28:51;3.20;;;2.90;;
80251;SDS011;69562;37.974;23.708;2023-04-24T15:31:17;3.28;;;2.90;;
80251;SDS011;69562;37.974;23.708;2023-04-24T15:33:43;4.60;;;3.08;;